createdAt,value
2022-09-18T00:00:16.379Z,88.18
2022-09-18T00:01:16.344Z,88.70
2022-09-18T00:02:16.434Z,88.59
2022-09-18T00:03:16.379Z,89.00
2022-09-18T00:04:16.418Z,88.49
2022-09-18T00:05:16.309Z,87.77
2022-09-18T00:06:16.300Z,87.67
2022-09-18T00:07:16.296Z,88.59
2022-09-18T00:08:16.280Z,88.08
2022-09-18T00:09:16.275Z,88.18
2022-09-18T00:10:16.265Z,88.39
2022-09-18T00:11:16.258Z,88.18
2022-09-18T00:12:16.804Z,88.49
2022-09-18T00:13:16.241Z,88.08
2022-09-18T00:14:16.229Z,88.18
2022-09-18T00:15:16.225Z,88.14
2022-09-18T00:16:16.387Z,88.18
2022-09-18T00:17:16.211Z,87.84
2022-09-18T00:18:16.198Z,88.24
2022-09-18T00:19:16.194Z,87.32
2022-09-18T00:20:16.292Z,86.91
2022-09-18T00:21:16.198Z,87.88
2022-09-18T00:22:16.168Z,87.63
2022-09-18T00:23:16.184Z,87.94
2022-09-18T00:24:16.846Z,87.73
2022-09-18T00:25:16.144Z,88.04
2022-09-18T00:26:16.147Z,88.35
2022-09-18T00:27:16.126Z,87.84
2022-09-18T00:28:16.115Z,87.84
2022-09-18T00:29:16.108Z,88.04
2022-09-18T00:31:16.704Z,87.84
2022-09-18T00:32:16.584Z,87.79
2022-09-18T00:33:16.576Z,87.63
2022-09-18T00:34:17.655Z,87.63
2022-09-18T00:35:17.647Z,88.24
2022-09-18T00:36:17.742Z,87.63
2022-09-18T00:37:17.642Z,87.12
2022-09-18T00:38:17.627Z,86.81
2022-09-18T00:39:17.619Z,87.84
2022-09-18T00:40:17.685Z,89.06
2022-09-18T00:41:17.601Z,88.86
2022-09-18T00:42:17.603Z,89.47
2022-09-18T00:43:17.585Z,88.82
2022-09-18T00:44:17.579Z,87.84
2022-09-18T00:45:17.582Z,87.94
2022-09-18T00:46:17.612Z,88.00
2022-09-18T00:47:17.562Z,87.73
2022-09-18T00:48:17.565Z,87.22
2022-09-18T00:49:17.529Z,88.04
2022-09-18T00:50:18.535Z,86.88
2022-09-18T00:51:17.521Z,87.12
2022-09-18T00:52:17.621Z,87.18
2022-09-18T00:53:17.508Z,88.24
2022-09-18T00:54:17.498Z,87.22
2022-09-18T00:55:17.488Z,87.12
2022-09-18T00:56:17.488Z,86.81
2022-09-18T00:57:17.490Z,86.91
2022-09-18T00:58:17.463Z,86.88
2022-09-18T00:59:17.455Z,86.20
2022-09-18T01:00:17.454Z,86.71
2022-09-18T01:01:17.476Z,86.30
2022-09-18T01:02:17.460Z,86.61
2022-09-18T01:03:17.431Z,86.46
2022-09-18T01:04:17.414Z,86.20
2022-09-18T01:05:17.407Z,86.36
2022-09-18T01:06:17.397Z,86.88
2022-09-18T01:07:17.391Z,86.61
2022-09-18T01:08:17.491Z,86.61
2022-09-18T01:09:27.982Z,86.16
2022-09-18T01:10:19.370Z,86.46
2022-09-18T01:11:17.359Z,86.91
2022-09-18T01:12:17.352Z,86.81
2022-09-18T01:13:17.350Z,86.91
2022-09-18T01:14:17.339Z,87.32
2022-09-18T01:15:17.343Z,88.04
2022-09-18T01:16:17.383Z,88.14
2022-09-18T01:17:17.308Z,88.14
2022-09-18T01:18:17.302Z,87.32
2022-09-18T01:19:17.302Z,87.22
2022-09-18T01:20:17.287Z,87.94
2022-09-18T01:21:17.307Z,88.24
2022-09-18T01:22:17.274Z,87.84
2022-09-18T01:23:17.266Z,88.04
2022-09-18T01:24:17.359Z,87.53
2022-09-18T01:25:17.251Z,87.84
2022-09-18T01:26:17.237Z,87.73
2022-09-18T01:27:17.227Z,87.94
2022-09-18T01:28:17.217Z,87.84
2022-09-18T01:29:17.212Z,87.84
2022-09-18T01:30:17.206Z,88.24
2022-09-18T01:31:17.278Z,87.84
2022-09-18T01:32:17.187Z,87.84
2022-09-18T01:33:17.177Z,87.98
2022-09-18T01:34:17.169Z,87.94
2022-09-18T01:35:37.201Z,87.73
2022-09-18T01:36:19.154Z,87.94
2022-09-18T01:37:17.147Z,87.84
2022-09-18T01:38:17.139Z,86.71
2022-09-18T01:39:17.132Z,86.91
2022-09-18T01:40:17.321Z,86.81
2022-09-18T01:41:17.111Z,87.22
2022-09-18T01:42:17.104Z,88.14
2022-09-18T01:43:17.096Z,87.94
2022-09-18T01:44:17.085Z,88.24
2022-09-18T01:45:17.087Z,86.85
2022-09-18T01:46:17.140Z,87.02
2022-09-18T01:47:17.060Z,87.02
2022-09-18T01:48:17.054Z,86.91
2022-09-18T01:49:17.052Z,88.04
2022-09-18T01:50:17.042Z,86.81
2022-09-18T01:51:17.042Z,87.02
2022-09-18T01:52:17.021Z,87.12
2022-09-18T01:53:17.021Z,88.04
2022-09-18T01:54:17.003Z,88.04
2022-09-18T01:55:17.001Z,87.32
2022-09-18T01:56:17.090Z,87.02
2022-09-18T01:57:17.545Z,86.91
2022-09-18T01:58:16.973Z,87.12
2022-09-18T01:59:16.971Z,87.02
2022-09-18T02:00:16.975Z,87.63
2022-09-18T02:01:17.027Z,87.94
2022-09-18T02:02:17.083Z,88.04
2022-09-18T02:03:17.935Z,88.14
2022-09-18T02:04:16.924Z,86.91
2022-09-18T02:05:16.924Z,87.94
2022-09-18T02:06:16.910Z,87.32
2022-09-18T02:07:16.897Z,87.53
2022-09-18T02:08:16.889Z,87.02
2022-09-18T02:09:16.883Z,88.04
2022-09-18T02:10:16.887Z,87.22
2022-09-18T02:11:16.871Z,87.53
2022-09-18T02:12:16.960Z,87.02
2022-09-18T02:13:16.864Z,87.18
2022-09-18T02:14:16.840Z,88.14
2022-09-18T02:15:16.831Z,87.12
2022-09-18T02:16:16.886Z,87.94
2022-09-18T02:17:16.813Z,87.94
2022-09-18T02:18:16.840Z,88.14
2022-09-18T02:19:16.797Z,88.14
2022-09-18T02:20:16.792Z,88.29
2022-09-18T02:21:16.782Z,88.35
2022-09-18T02:22:16.782Z,88.35
2022-09-18T02:23:16.778Z,88.65
2022-09-18T02:24:16.762Z,88.96
2022-09-18T02:25:16.754Z,88.90
2022-09-18T02:26:16.768Z,89.17
2022-09-18T02:27:16.741Z,89.27
2022-09-18T02:28:16.837Z,89.42
2022-09-18T02:29:16.718Z,89.42
2022-09-18T02:30:16.717Z,89.11
2022-09-18T02:31:17.523Z,89.31
2022-09-18T02:32:16.704Z,89.51
2022-09-18T02:33:16.692Z,90.09
2022-09-18T02:34:16.679Z,89.83
2022-09-18T02:35:16.675Z,89.83
2022-09-18T02:36:16.669Z,89.92
2022-09-18T02:37:16.657Z,89.06
2022-09-18T02:38:16.657Z,90.34
2022-09-18T02:39:16.648Z,90.34
2022-09-18T02:40:16.705Z,89.47
2022-09-18T02:41:16.625Z,90.09
2022-09-18T02:42:16.626Z,90.19
2022-09-18T02:43:16.634Z,89.72
2022-09-18T02:44:16.728Z,89.89
2022-09-18T02:45:16.593Z,90.34
2022-09-18T02:46:16.641Z,90.19
2022-09-18T02:47:16.598Z,90.09
2022-09-18T02:48:16.575Z,90.09
2022-09-18T02:49:16.578Z,89.98
2022-09-18T02:50:16.553Z,89.68
2022-09-18T02:51:16.556Z,89.21
2022-09-18T02:52:16.541Z,89.89
2022-09-18T02:53:16.526Z,89.58
2022-09-18T02:54:16.526Z,89.68
2022-09-18T02:55:16.513Z,89.47
2022-09-18T02:56:16.502Z,88.96
2022-09-18T02:57:16.583Z,88.96
2022-09-18T02:58:16.485Z,88.65
2022-09-18T02:59:16.491Z,88.62
2022-09-18T03:00:16.578Z,88.86
2022-09-18T03:01:16.544Z,88.96
2022-09-18T03:02:16.501Z,88.45
2022-09-18T03:03:16.449Z,87.94
2022-09-18T03:04:16.451Z,87.79
2022-09-18T03:05:16.434Z,87.84
2022-09-18T03:06:16.424Z,88.56
2022-09-18T03:07:16.424Z,88.24
2022-09-18T03:08:16.411Z,87.94
2022-09-18T03:09:16.407Z,87.94
2022-09-18T03:10:16.382Z,87.94
2022-09-18T03:11:17.382Z,88.24
2022-09-18T03:12:16.374Z,88.04
2022-09-18T03:13:16.364Z,88.45
2022-09-18T03:14:16.355Z,88.96
2022-09-18T03:15:16.359Z,88.35
2022-09-18T03:16:16.498Z,87.73
2022-09-18T03:17:16.335Z,87.84
2022-09-18T03:18:16.327Z,87.84
2022-09-18T03:19:16.317Z,87.84
2022-09-18T03:20:16.323Z,88.14
2022-09-18T03:21:16.300Z,88.35
2022-09-18T03:22:16.297Z,88.18
2022-09-18T03:23:16.306Z,88.56
2022-09-18T03:24:16.277Z,88.45
2022-09-18T03:25:17.071Z,88.18
2022-09-18T03:26:16.259Z,88.29
2022-09-18T03:27:16.251Z,88.29
2022-09-18T03:28:16.244Z,88.59
2022-09-18T03:29:16.234Z,88.90
2022-09-18T03:30:16.262Z,88.39
2022-09-18T03:31:16.309Z,88.49
2022-09-18T03:32:16.313Z,88.70
2022-09-18T03:33:16.203Z,87.98
2022-09-18T03:34:16.197Z,87.67
2022-09-18T03:35:16.198Z,87.88
2022-09-18T03:36:16.178Z,88.18
2022-09-18T03:37:16.169Z,88.18
2022-09-18T03:38:16.161Z,88.18
2022-09-18T03:39:16.469Z,88.49
2022-09-18T03:40:17.207Z,88.08
2022-09-18T03:41:16.137Z,88.29
2022-09-18T03:42:16.129Z,88.64
2022-09-18T03:43:16.116Z,88.70
2022-09-18T03:44:16.106Z,88.64
2022-09-18T03:45:16.100Z,88.29
2022-09-18T03:46:16.128Z,89.15
2022-09-18T03:47:16.084Z,88.43
2022-09-18T03:48:16.176Z,88.12
2022-09-18T03:49:16.067Z,87.92
2022-09-18T03:50:16.059Z,87.82
2022-09-18T03:51:16.056Z,88.33
2022-09-18T03:52:16.043Z,88.02
2022-09-18T03:53:16.036Z,88.57
2022-09-18T03:54:16.029Z,88.68
2022-09-18T03:55:16.020Z,88.37
2022-09-18T03:56:16.017Z,88.88
2022-09-18T03:57:16.004Z,88.98
2022-09-18T03:58:15.995Z,89.19
2022-09-18T03:59:16.577Z,88.88
2022-09-18T04:00:15.983Z,88.82
2022-09-18T04:01:15.982Z,89.23
2022-09-18T04:02:16.619Z,89.54
2022-09-18T04:03:16.010Z,89.70
2022-09-18T04:04:16.046Z,89.54
2022-09-18T04:05:15.970Z,89.84
2022-09-18T04:06:15.936Z,89.64
2022-09-18T04:07:15.921Z,89.75
2022-09-18T04:08:15.914Z,89.33
2022-09-18T04:09:15.913Z,90.05
2022-09-18T04:10:15.899Z,90.05
2022-09-18T04:11:15.902Z,89.33
2022-09-18T04:12:16.578Z,90.16
2022-09-18T04:13:15.878Z,90.20
2022-09-18T04:14:15.864Z,90.16
2022-09-18T04:15:15.859Z,90.56
2022-09-18T04:16:15.884Z,90.16
2022-09-18T04:17:15.852Z,90.36
2022-09-18T04:18:15.835Z,90.56
2022-09-18T04:19:15.828Z,90.36
2022-09-18T04:20:15.920Z,90.16
2022-09-18T04:21:15.812Z,90.67
2022-09-18T04:22:15.808Z,90.16
2022-09-18T04:23:15.803Z,90.56
2022-09-18T04:24:15.790Z,89.70
2022-09-18T04:25:15.790Z,89.50
2022-09-18T04:26:15.779Z,89.54
2022-09-18T04:27:15.767Z,89.23
2022-09-18T04:28:15.763Z,89.90
2022-09-18T04:29:15.747Z,89.90
2022-09-18T04:30:15.748Z,89.29
2022-09-18T04:31:15.777Z,89.43
2022-09-18T04:32:15.729Z,90.16
2022-09-18T04:33:16.184Z,89.95
2022-09-18T04:34:16.712Z,89.75
2022-09-18T04:35:15.694Z,89.60
2022-09-18T04:36:15.796Z,88.88
2022-09-18T04:37:15.682Z,89.50
2022-09-18T04:38:15.675Z,89.64
2022-09-18T04:39:15.672Z,89.29
2022-09-18T04:40:15.717Z,88.98
2022-09-18T04:41:15.660Z,89.50
2022-09-18T04:42:15.642Z,89.29
2022-09-18T04:43:15.635Z,88.68
2022-09-18T04:44:15.640Z,88.88
2022-09-18T04:45:15.619Z,89.19
2022-09-18T04:46:15.669Z,89.60
2022-09-18T04:47:15.601Z,89.39
2022-09-18T04:48:15.594Z,89.81
2022-09-18T04:49:15.594Z,89.29
2022-09-18T04:50:15.575Z,89.70
2022-09-18T04:51:15.567Z,89.29
2022-09-18T04:52:15.667Z,89.60
2022-09-18T04:53:15.552Z,89.81
2022-09-18T04:54:15.549Z,89.66
2022-09-18T04:55:15.538Z,89.29
2022-09-18T04:56:15.549Z,89.45
2022-09-18T04:57:15.521Z,89.50
2022-09-18T04:58:15.510Z,89.36
2022-09-18T04:59:15.600Z,89.04
2022-09-18T05:00:15.497Z,89.70
2022-09-18T05:01:15.563Z,89.87
2022-09-18T05:02:15.526Z,89.90
2022-09-18T05:03:15.474Z,89.45
2022-09-18T05:04:15.462Z,89.36
2022-09-18T05:05:15.462Z,89.66
2022-09-18T05:06:15.444Z,89.25
2022-09-18T05:07:16.012Z,89.36
2022-09-18T05:08:15.531Z,89.76
2022-09-18T05:09:15.419Z,89.83
2022-09-18T05:10:15.425Z,89.15
2022-09-18T05:11:15.428Z,89.83
2022-09-18T05:12:15.396Z,89.45
2022-09-18T05:13:15.395Z,89.36
2022-09-18T05:14:15.383Z,90.17
2022-09-18T05:15:15.372Z,90.07
2022-09-18T05:16:15.457Z,89.97
2022-09-18T05:17:15.362Z,89.42
2022-09-18T05:18:15.346Z,89.92
2022-09-18T05:19:15.351Z,89.31
2022-09-18T05:20:15.332Z,89.31
2022-09-18T05:21:15.323Z,89.51
2022-09-18T05:22:15.316Z,89.25
2022-09-18T05:23:15.313Z,89.72
2022-09-18T05:24:15.466Z,89.62
2022-09-18T05:25:15.304Z,89.83
2022-09-18T05:26:16.291Z,89.31
2022-09-18T05:27:15.273Z,89.51
2022-09-18T05:28:15.273Z,88.80
2022-09-18T05:29:15.283Z,88.90
2022-09-18T05:30:15.248Z,89.21
2022-09-18T05:31:15.309Z,88.70
2022-09-18T05:32:15.233Z,88.96
2022-09-18T05:33:15.231Z,89.06
2022-09-18T05:34:15.220Z,89.06
2022-09-18T05:35:15.206Z,88.45
2022-09-18T05:36:15.199Z,88.45
2022-09-18T05:37:15.196Z,88.24
2022-09-18T05:38:15.183Z,88.14
2022-09-18T05:39:17.646Z,87.84
2022-09-18T05:40:16.316Z,88.35
2022-09-18T05:41:15.156Z,88.45
2022-09-18T05:42:15.174Z,88.76
2022-09-18T05:43:15.138Z,88.76
2022-09-18T05:44:15.138Z,88.20
2022-09-18T05:45:15.125Z,87.79
2022-09-18T05:46:15.228Z,88.10
2022-09-18T05:47:15.115Z,88.35
2022-09-18T05:48:15.099Z,88.65
2022-09-18T05:49:15.092Z,88.31
2022-09-18T05:50:15.090Z,88.45
2022-09-18T05:51:15.088Z,88.51
2022-09-18T05:52:15.079Z,88.20
2022-09-18T05:53:15.059Z,88.41
2022-09-18T05:54:15.050Z,88.51
2022-09-18T05:55:15.045Z,88.10
2022-09-18T05:56:15.142Z,88.31
2022-09-18T05:57:15.041Z,88.26
2022-09-18T05:58:15.020Z,88.10
2022-09-18T05:59:15.026Z,87.70
2022-09-18T06:00:15.002Z,88.10
2022-09-18T06:01:15.524Z,88.37
2022-09-18T06:02:15.076Z,88.20
2022-09-18T06:03:15.046Z,88.31
2022-09-18T06:04:14.972Z,87.85
2022-09-18T06:05:14.958Z,88.20
2022-09-18T06:06:14.950Z,87.79
2022-09-18T06:07:14.942Z,87.76
2022-09-18T06:08:14.939Z,88.10
2022-09-18T06:09:14.927Z,88.82
2022-09-18T06:10:14.917Z,88.17
2022-09-18T06:11:14.915Z,88.37
2022-09-18T06:12:15.006Z,88.31
2022-09-18T06:13:14.895Z,88.37
2022-09-18T06:14:14.885Z,88.71
2022-09-18T06:15:14.875Z,88.47
2022-09-18T06:16:14.945Z,88.71
2022-09-18T06:17:14.858Z,89.29
2022-09-18T06:18:14.858Z,88.78
2022-09-18T06:19:14.843Z,89.09
2022-09-18T06:20:14.836Z,89.94
2022-09-18T06:21:14.835Z,89.90
2022-09-18T06:22:14.820Z,90.00
2022-09-18T06:23:14.811Z,89.74
2022-09-18T06:24:14.809Z,90.05
2022-09-18T06:25:14.793Z,90.36
2022-09-18T06:26:15.326Z,89.94
2022-09-18T06:27:15.776Z,90.36
2022-09-18T06:28:14.875Z,90.05
2022-09-18T06:29:14.769Z,90.25
2022-09-18T06:30:14.755Z,90.45
2022-09-18T06:31:14.759Z,90.72
2022-09-18T06:32:14.744Z,90.62
2022-09-18T06:33:14.728Z,90.31
2022-09-18T06:34:14.725Z,90.31
2022-09-18T06:35:14.712Z,90.56
2022-09-18T06:36:14.699Z,90.82
2022-09-18T06:37:14.697Z,90.56
2022-09-18T06:38:14.694Z,90.92
2022-09-18T06:39:14.681Z,91.03
2022-09-18T06:40:14.729Z,90.52
2022-09-18T06:41:14.661Z,90.72
2022-09-18T06:42:14.661Z,90.82
2022-09-18T06:43:14.640Z,90.72
2022-09-18T06:44:14.739Z,90.82
2022-09-18T06:45:14.634Z,90.72
2022-09-18T06:46:14.701Z,90.62
2022-09-18T06:47:14.617Z,90.62
2022-09-18T06:48:14.602Z,90.62
2022-09-18T06:49:14.596Z,90.21
2022-09-18T06:50:14.584Z,90.72
2022-09-18T06:51:14.598Z,91.13
2022-09-18T06:52:14.575Z,90.52
2022-09-18T06:53:14.576Z,90.47
2022-09-18T06:54:14.554Z,89.90
2022-09-18T06:55:14.552Z,90.06
2022-09-18T06:56:14.541Z,90.41
2022-09-18T06:57:14.528Z,90.17
2022-09-18T06:58:14.524Z,90.31
2022-09-18T06:59:14.511Z,90.00
2022-09-18T07:00:14.617Z,89.76
2022-09-18T07:01:14.548Z,89.97
2022-09-18T07:02:19.200Z,89.97
2022-09-18T07:03:16.478Z,89.86
2022-09-18T07:04:14.469Z,89.45
2022-09-18T07:05:14.465Z,88.94
2022-09-18T07:06:14.464Z,89.04
2022-09-18T07:07:14.449Z,88.94
2022-09-18T07:08:14.443Z,89.31
2022-09-18T07:09:14.430Z,88.12
2022-09-18T07:10:14.425Z,89.00
2022-09-18T07:11:14.419Z,88.33
2022-09-18T07:12:14.412Z,88.39
2022-09-18T07:13:14.397Z,87.88
2022-09-18T07:14:14.391Z,88.29
2022-09-18T07:15:14.381Z,88.29
2022-09-18T07:16:14.555Z,88.49
2022-09-18T07:17:18.230Z,87.67
2022-09-18T07:18:15.360Z,87.88
2022-09-18T07:19:14.354Z,87.88
2022-09-18T07:20:14.342Z,87.88
2022-09-18T07:21:14.335Z,87.84
2022-09-18T07:22:14.331Z,88.18
2022-09-18T07:23:14.317Z,88.84
2022-09-18T07:24:14.324Z,88.39
2022-09-18T07:25:14.309Z,88.79
2022-09-18T07:26:14.307Z,88.39
2022-09-18T07:27:14.285Z,88.39
2022-09-18T07:28:14.373Z,88.14
2022-09-18T07:29:14.266Z,87.94
2022-09-18T07:30:14.260Z,87.73
2022-09-18T07:31:14.318Z,87.84
2022-09-18T07:32:14.344Z,86.71
2022-09-18T07:33:15.133Z,86.91
2022-09-18T07:34:14.231Z,86.30
2022-09-18T07:35:14.222Z,86.20
2022-09-18T07:36:14.221Z,86.26
2022-09-18T07:37:14.205Z,86.36
2022-09-18T07:38:14.209Z,86.47
2022-09-18T07:39:14.190Z,86.67
2022-09-18T07:40:14.229Z,86.36
2022-09-18T07:41:14.186Z,86.57
2022-09-18T07:42:14.166Z,87.08
2022-09-18T07:43:14.157Z,88.00
2022-09-18T07:44:14.150Z,87.79
2022-09-18T07:45:14.139Z,87.08
2022-09-18T07:46:14.181Z,87.70
2022-09-18T07:47:14.145Z,87.70
2022-09-18T07:48:14.214Z,87.70
2022-09-18T07:49:14.103Z,87.76
2022-09-18T07:50:14.102Z,87.76
2022-09-18T07:51:14.099Z,86.83
2022-09-18T07:52:14.106Z,87.71
2022-09-18T07:53:14.088Z,86.69
2022-09-18T07:54:14.067Z,86.08
2022-09-18T07:55:14.059Z,86.45
2022-09-18T07:56:14.052Z,86.55
2022-09-18T07:57:14.050Z,85.53
2022-09-18T07:58:14.035Z,85.84
2022-09-18T07:59:14.025Z,85.53
2022-09-18T08:00:14.025Z,86.21
2022-09-18T08:01:14.009Z,85.39
2022-09-18T08:02:14.192Z,85.28
2022-09-18T08:03:14.060Z,85.49
2022-09-18T08:04:14.101Z,85.90
2022-09-18T08:05:13.978Z,86.21
2022-09-18T08:06:14.030Z,86.00
2022-09-18T08:07:13.957Z,86.24
2022-09-18T08:08:13.956Z,87.67
2022-09-18T08:09:13.941Z,86.65
2022-09-18T08:10:13.942Z,87.47
2022-09-18T08:11:13.930Z,87.61
2022-09-18T08:12:13.913Z,87.47
2022-09-18T08:13:13.906Z,86.39
2022-09-18T08:14:13.901Z,87.41
2022-09-18T08:15:13.891Z,87.57
2022-09-18T08:16:13.992Z,87.37
2022-09-18T08:17:13.885Z,86.55
2022-09-18T08:18:13.865Z,86.45
2022-09-18T08:19:13.860Z,86.15
2022-09-18T08:20:13.962Z,85.90
2022-09-18T08:21:13.842Z,86.30
2022-09-18T08:22:13.840Z,86.41
2022-09-18T08:23:13.823Z,87.16
2022-09-18T08:24:13.821Z,87.57
2022-09-18T08:25:13.814Z,86.61
2022-09-18T08:26:15.072Z,86.21
2022-09-18T08:27:13.803Z,85.69
2022-09-18T08:28:13.791Z,85.80
2022-09-18T08:29:13.785Z,85.55
2022-09-18T08:30:13.776Z,85.31
2022-09-18T08:31:13.835Z,83.98
2022-09-18T08:32:13.758Z,84.09
2022-09-18T08:33:13.756Z,84.09
2022-09-18T08:34:13.739Z,83.27
2022-09-18T08:35:13.732Z,83.34
2022-09-18T08:36:13.843Z,82.73
2022-09-18T08:37:13.716Z,82.12
2022-09-18T08:38:13.707Z,82.42
2022-09-18T08:39:13.700Z,82.93
2022-09-18T08:40:13.751Z,82.21
2022-09-18T08:41:13.681Z,81.40
2022-09-18T08:42:13.674Z,81.37
2022-09-18T08:43:13.669Z,80.45
2022-09-18T08:44:13.658Z,80.21
2022-09-18T08:45:13.658Z,80.24
2022-09-18T08:46:13.686Z,80.51
2022-09-18T08:47:13.625Z,79.90
2022-09-18T08:48:14.627Z,78.99
2022-09-18T08:49:13.615Z,79.70
2022-09-18T08:50:13.616Z,79.80
2022-09-18T08:51:13.598Z,79.25
2022-09-18T08:52:13.689Z,78.95
2022-09-18T08:53:13.583Z,78.34
2022-09-18T08:54:13.575Z,78.34
2022-09-18T08:55:13.572Z,77.80
2022-09-18T08:56:13.563Z,77.70
2022-09-18T08:57:15.638Z,78.20
2022-09-18T08:58:15.071Z,77.90
2022-09-18T08:59:13.532Z,78.20
2022-09-18T09:00:13.530Z,77.29
2022-09-18T09:01:13.606Z,77.19
2022-09-18T09:02:13.637Z,76.95
2022-09-18T09:03:13.501Z,77.56
2022-09-18T09:04:13.493Z,76.03
2022-09-18T09:05:13.489Z,75.73
2022-09-18T09:06:13.486Z,75.39
2022-09-18T09:07:13.470Z,75.90
2022-09-18T09:08:13.567Z,75.19
2022-09-18T09:09:16.905Z,75.19
2022-09-18T09:10:15.451Z,76.06
2022-09-18T09:11:13.440Z,75.56
2022-09-18T09:12:13.439Z,76.10
2022-09-18T09:13:13.426Z,75.76
2022-09-18T09:14:13.413Z,75.15
2022-09-18T09:15:14.725Z,74.95
2022-09-18T09:16:13.459Z,74.65
2022-09-18T09:17:13.398Z,74.65
2022-09-18T09:18:13.412Z,74.58
2022-09-18T09:19:13.377Z,75.46
2022-09-18T09:20:13.367Z,74.68
2022-09-18T09:21:13.363Z,74.68
2022-09-18T09:22:13.348Z,74.65
2022-09-18T09:23:13.349Z,74.07
2022-09-18T09:24:13.437Z,74.24
2022-09-18T09:25:14.087Z,73.39
2022-09-18T09:26:13.323Z,73.60
2022-09-18T09:27:13.310Z,72.75
2022-09-18T09:28:16.286Z,72.96
2022-09-18T09:29:14.292Z,71.53
2022-09-18T09:30:13.286Z,72.45
2022-09-18T09:31:13.316Z,71.94
2022-09-18T09:32:13.339Z,71.73
2022-09-18T09:33:13.259Z,71.97
2022-09-18T09:34:13.256Z,71.33
2022-09-18T09:35:13.240Z,71.44
2022-09-18T09:36:13.232Z,71.64
2022-09-18T09:37:13.231Z,71.53
2022-09-18T09:38:13.221Z,71.60
2022-09-18T09:39:13.215Z,71.20
2022-09-18T09:40:13.447Z,70.29
2022-09-18T09:41:13.194Z,71.20
2022-09-18T09:42:13.187Z,70.49
2022-09-18T09:43:13.178Z,71.84
2022-09-18T09:44:13.179Z,71.09
2022-09-18T09:45:13.162Z,72.11
2022-09-18T09:46:15.111Z,72.34
2022-09-18T09:47:13.287Z,72.04
2022-09-18T09:48:13.149Z,71.73
2022-09-18T09:49:13.131Z,73.25
2022-09-18T09:50:13.124Z,72.04
2022-09-18T09:51:13.122Z,72.34
2022-09-18T09:52:13.107Z,72.55
2022-09-18T09:53:13.100Z,71.97
2022-09-18T09:54:13.094Z,72.58
2022-09-18T09:55:13.121Z,72.45
2022-09-18T09:56:13.192Z,72.34
2022-09-18T09:57:13.068Z,72.04
2022-09-18T09:58:13.061Z,71.33
2022-09-18T09:59:13.592Z,72.24
2022-09-18T10:00:13.053Z,72.45
2022-09-18T10:01:13.142Z,71.91
2022-09-18T10:02:13.063Z,72.21
2022-09-18T10:03:13.022Z,71.20
2022-09-18T10:04:13.007Z,71.80
2022-09-18T10:05:13.015Z,70.69
2022-09-18T10:06:12.996Z,70.89
2022-09-18T10:07:12.983Z,71.40
2022-09-18T10:08:12.967Z,71.40
2022-09-18T10:09:13.978Z,71.91
2022-09-18T10:10:12.958Z,72.01
2022-09-18T10:11:12.957Z,71.80
2022-09-18T10:12:12.948Z,72.52
2022-09-18T10:13:12.934Z,72.01
2022-09-18T10:14:12.925Z,72.72
2022-09-18T10:15:12.921Z,72.45
2022-09-18T10:16:12.986Z,72.65
2022-09-18T10:17:12.905Z,72.85
2022-09-18T10:18:16.244Z,73.60
2022-09-18T10:19:13.884Z,74.71
2022-09-18T10:20:12.895Z,74.65
2022-09-18T10:21:12.885Z,75.73
2022-09-18T10:22:12.881Z,75.76
2022-09-18T10:23:12.864Z,76.27
2022-09-18T10:24:12.846Z,76.06
2022-09-18T10:25:12.846Z,76.17
2022-09-18T10:26:12.837Z,76.10
2022-09-18T10:27:13.606Z,76.61
2022-09-18T10:28:12.914Z,75.96
2022-09-18T10:29:12.806Z,76.06
2022-09-18T10:30:12.799Z,75.96
2022-09-18T10:31:12.845Z,76.00
2022-09-18T10:32:12.792Z,75.70
2022-09-18T10:33:12.774Z,75.93
2022-09-18T10:34:12.764Z,76.00
2022-09-18T10:35:12.761Z,75.90
2022-09-18T10:36:12.756Z,76.34
2022-09-18T10:37:12.752Z,76.64
2022-09-18T10:38:12.736Z,77.12
2022-09-18T10:39:12.729Z,77.25
2022-09-18T10:40:12.756Z,76.64
2022-09-18T10:41:12.710Z,77.66
2022-09-18T10:42:12.828Z,78.30
2022-09-18T10:43:12.691Z,78.91
2022-09-18T10:44:12.808Z,78.61
2022-09-18T10:45:12.678Z,78.37
2022-09-18T10:46:12.717Z,78.10
2022-09-18T10:47:12.670Z,78.00
2022-09-18T10:48:12.653Z,77.49
2022-09-18T10:49:13.610Z,78.20
2022-09-18T10:50:12.710Z,79.22
2022-09-18T10:51:12.630Z,78.71
2022-09-18T10:52:12.625Z,78.81
2022-09-18T10:53:12.611Z,78.85
2022-09-18T10:54:12.618Z,79.36
2022-09-18T10:55:12.613Z,80.72
2022-09-18T10:56:12.586Z,79.86
2022-09-18T10:57:12.577Z,80.11
2022-09-18T10:58:12.569Z,80.37
2022-09-18T10:59:12.565Z,80.78
2022-09-18T11:00:12.751Z,80.13
2022-09-18T11:01:12.625Z,79.36
2022-09-18T11:02:12.577Z,79.02
2022-09-18T11:03:12.526Z,80.13
2022-09-18T11:04:12.519Z,79.93
2022-09-18T11:05:12.516Z,80.24
2022-09-18T11:06:12.504Z,80.78
2022-09-18T11:07:12.506Z,80.74
2022-09-18T11:08:12.491Z,80.07
2022-09-18T11:09:12.490Z,80.24
2022-09-18T11:10:12.479Z,80.68
2022-09-18T11:11:12.459Z,80.33
2022-09-18T11:12:12.455Z,81.25
2022-09-18T11:13:12.447Z,80.91
2022-09-18T11:14:12.435Z,80.84
2022-09-18T11:15:12.435Z,80.24
2022-09-18T11:16:12.551Z,79.49
2022-09-18T11:17:12.412Z,79.69
2022-09-18T11:18:12.407Z,78.88
2022-09-18T11:19:12.401Z,79.38
2022-09-18T11:20:12.393Z,78.88
2022-09-18T11:21:12.386Z,79.28
2022-09-18T11:22:12.375Z,80.19
2022-09-18T11:23:12.361Z,78.17
2022-09-18T11:24:12.359Z,77.62
2022-09-18T11:25:12.352Z,77.22
2022-09-18T11:26:12.344Z,77.83
2022-09-18T11:27:12.339Z,76.31
2022-09-18T11:28:12.332Z,77.12
2022-09-18T11:29:12.320Z,78.09
2022-09-18T11:30:12.308Z,77.99
2022-09-18T11:31:12.397Z,76.98
2022-09-18T11:32:12.390Z,76.27
2022-09-18T11:33:12.291Z,76.17
2022-09-18T11:34:12.280Z,76.57
2022-09-18T11:35:12.264Z,75.86
2022-09-18T11:36:13.256Z,75.96
2022-09-18T11:37:13.249Z,76.67
2022-09-18T11:38:12.248Z,76.06
2022-09-18T11:39:13.122Z,76.37
2022-09-18T11:40:12.264Z,76.27
2022-09-18T11:41:12.213Z,76.06
2022-09-18T11:42:12.206Z,75.86
2022-09-18T11:43:12.219Z,76.27
2022-09-18T11:44:12.192Z,75.86
2022-09-18T11:45:12.195Z,76.57
2022-09-18T11:46:12.223Z,76.06
2022-09-18T11:47:12.167Z,76.67
2022-09-18T11:48:12.275Z,77.12
2022-09-18T11:49:12.156Z,77.18
2022-09-18T11:50:12.145Z,76.40
2022-09-18T11:51:12.134Z,77.89
2022-09-18T11:52:12.131Z,77.52
2022-09-18T11:53:12.132Z,77.01
2022-09-18T11:54:12.113Z,77.62
2022-09-18T11:55:12.103Z,78.40
2022-09-18T11:56:12.096Z,77.79
2022-09-18T11:57:12.093Z,77.52
2022-09-18T11:58:12.080Z,78.74
2022-09-18T11:59:12.081Z,78.44
2022-09-18T12:00:12.067Z,78.50
2022-09-18T12:01:12.073Z,79.04
2022-09-18T12:02:12.104Z,78.84
2022-09-18T12:03:12.073Z,78.64
2022-09-18T12:04:12.141Z,78.23
2022-09-18T12:05:12.025Z,78.94
2022-09-18T12:06:12.022Z,79.08
2022-09-18T12:07:12.012Z,78.67
2022-09-18T12:08:11.360Z,79.08
2022-09-18T12:09:11.361Z,78.67
2022-09-18T12:10:10.629Z,79.08
2022-09-18T12:11:10.622Z,79.28
2022-09-18T12:12:10.606Z,79.18
2022-09-18T12:13:10.607Z,79.22
2022-09-18T12:14:10.595Z,79.69
2022-09-18T12:15:10.579Z,79.79
2022-09-18T12:16:10.604Z,80.19
2022-09-18T12:17:10.565Z,80.71
2022-09-18T12:18:10.553Z,79.79
2022-09-18T12:19:10.559Z,80.10
2022-09-18T12:20:10.538Z,80.19
2022-09-18T12:21:10.530Z,80.03
2022-09-18T12:22:10.519Z,80.80
2022-09-18T12:23:10.510Z,80.84
2022-09-18T12:24:10.510Z,80.19
2022-09-18T12:25:10.491Z,80.30
2022-09-18T12:26:10.494Z,80.71
2022-09-18T12:27:10.491Z,80.60
2022-09-18T12:28:10.471Z,79.99
2022-09-18T12:29:10.462Z,78.53
2022-09-18T12:30:10.451Z,76.71
2022-09-18T12:31:10.535Z,77.62
2022-09-18T12:32:10.434Z,77.66
2022-09-18T12:33:13.390Z,78.44
2022-09-18T12:34:10.413Z,76.51
2022-09-18T12:35:10.411Z,76.54
2022-09-18T12:36:10.488Z,76.44
2022-09-18T12:37:10.383Z,78.17
2022-09-18T12:38:10.373Z,78.61
2022-09-18T12:39:13.029Z,78.98
2022-09-18T12:40:12.093Z,79.69
2022-09-18T12:41:11.023Z,78.88
2022-09-18T12:42:11.012Z,79.18
2022-09-18T12:43:11.002Z,78.94
2022-09-18T12:44:10.993Z,78.57
2022-09-18T12:45:11.001Z,79.35
2022-09-18T12:46:11.025Z,77.32
2022-09-18T12:47:10.964Z,77.86
2022-09-18T12:48:10.956Z,79.35
2022-09-18T12:49:10.962Z,78.37
2022-09-18T12:50:10.945Z,77.66
2022-09-18T12:51:10.947Z,76.64
2022-09-18T12:52:11.018Z,76.64
2022-09-18T12:53:10.914Z,77.36